sensor_id;sensor_type;location;lat;lon;timestamp;P1;durP1;ratioP1;P2;durP2;ratioP2
4652;SDS011;9900;48.738;9.306;2023-09-30T00:00:46;12.20;;;4.43;;
4652;SDS011;9900;48.738;9.306;2023-09-30T00:03:15;10.50;;;5.17;;
4652;SDS011;9900;48.738;9.306;2023-09-30T00:05:44;11.43;;;4.70;;
4652;SDS011;9900;48.738;9.306;2023-09-30T00:08:14;9.13;;;4.57;;
4652;SDS011;9900;48.738;9.306;2023-09-30T00:10:43;9.40;;;3.97;;
4652;SDS011;9900;48.738;9.306;2023-09-30T00:13:11;8.57;;;3.67;;
4652;SDS011;9900;48.738;9.306;2023-09-30T00:15:40;9.07;;;3.93;;
4652;SDS011;9900;48.738;9.306;2023-09-30T00:18:09;8.80;;;3.83;;
4652;SDS011;9900;48.738;9.306;2023-09-30T00:20:38;8.40;;;3.80;;
4652;SDS011;9900;48.738;9.306;2023-09-30T00:23:07;6.47;;;3.47;;
4652;SDS011;9900;48.738;9.306;2023-09-30T00:25:37;10.37;;;4.03;;
4652;SDS011;9900;48.738;9.306;2023-09-30T00:28:06;7.33;;;3.70;;
4652;SDS011;9900;48.738;9.306;2023-09-30T00:30:35;8.90;;;4.00;;
4652;SDS011;9900;48.738;9.306;2023-09-30T00:33:05;9.00;;;3.80;;
4652;SDS011;9900;48.738;9.306;2023-09-30T00:35:35;8.30;;;3.50;;
4652;SDS011;9900;48.738;9.306;2023-09-30T00:38:04;7.80;;;3.23;;
4652;SDS011;9900;48.738;9.306;2023-09-30T00:40:33;6.93;;;3.13;;
4652;SDS011;9900;48.738;9.306;2023-09-30T00:43:03;8.83;;;3.13;;
4652;SDS011;9900;48.738;9.306;2023-09-30T00:45:32;8.20;;;3.23;;
4652;SDS011;9900;48.738;9.306;2023-09-30T00:48:01;6.30;;;3.70;;
4652;SDS011;9900;48.738;9.306;2023-09-30T00:50:30;6.97;;;3.30;;
4652;SDS011;9900;48.738;9.306;2023-09-30T00:52:59;5.40;;;2.70;;
4652;SDS011;9900;48.738;9.306;2023-09-30T00:55:28;6.20;;;2.67;;
4652;SDS011;9900;48.738;9.306;2023-09-30T00:57:56;7.00;;;2.97;;
4652;SDS011;9900;48.738;9.306;2023-09-30T01:00:27;5.27;;;2.57;;
4652;SDS011;9900;48.738;9.306;2023-09-30T01:02:56;7.97;;;2.50;;
4652;SDS011;9900;48.738;9.306;2023-09-30T01:05:27;3.73;;;2.20;;
4652;SDS011;9900;48.738;9.306;2023-09-30T01:07:56;4.13;;;2.10;;
4652;SDS011;9900;48.738;9.306;2023-09-30T01:10:24;2.70;;;2.07;;
4652;SDS011;9900;48.738;9.306;2023-09-30T01:12:53;4.00;;;2.43;;
4652;SDS011;9900;48.738;9.306;2023-09-30T01:15:22;6.40;;;2.23;;
4652;SDS011;9900;48.738;9.306;2023-09-30T01:17:52;5.80;;;1.90;;
4652;SDS011;9900;48.738;9.306;2023-09-30T01:20:21;2.97;;;2.40;;
4652;SDS011;9900;48.738;9.306;2023-09-30T01:22:52;4.27;;;1.93;;
4652;SDS011;9900;48.738;9.306;2023-09-30T01:25:22;4.43;;;2.27;;
4652;SDS011;9900;48.738;9.306;2023-09-30T01:27:51;4.80;;;2.23;;
4652;SDS011;9900;48.738;9.306;2023-09-30T01:30:20;3.70;;;1.83;;
4652;SDS011;9900;48.738;9.306;2023-09-30T01:32:49;6.43;;;2.50;;
4652;SDS011;9900;48.738;9.306;2023-09-30T01:35:18;2.60;;;2.33;;
4652;SDS011;9900;48.738;9.306;2023-09-30T01:37:48;5.87;;;2.33;;
4652;SDS011;9900;48.738;9.306;2023-09-30T01:40:18;5.73;;;2.33;;
4652;SDS011;9900;48.738;9.306;2023-09-30T01:42:47;6.20;;;2.60;;
4652;SDS011;9900;48.738;9.306;2023-09-30T01:45:15;4.17;;;1.80;;
4652;SDS011;9900;48.738;9.306;2023-09-30T01:47:44;6.10;;;2.40;;
4652;SDS011;9900;48.738;9.306;2023-09-30T01:50:13;3.70;;;2.20;;
4652;SDS011;9900;48.738;9.306;2023-09-30T01:52:42;3.80;;;2.67;;
4652;SDS011;9900;48.738;9.306;2023-09-30T01:55:11;6.20;;;2.83;;
4652;SDS011;9900;48.738;9.306;2023-09-30T01:57:41;5.80;;;2.13;;
4652;SDS011;9900;48.738;9.306;2023-09-30T02:00:10;4.10;;;1.70;;
4652;SDS011;9900;48.738;9.306;2023-09-30T02:02:40;4.10;;;2.43;;
4652;SDS011;9900;48.738;9.306;2023-09-30T02:05:09;4.70;;;2.77;;
4652;SDS011;9900;48.738;9.306;2023-09-30T02:07:38;3.10;;;2.03;;
4652;SDS011;9900;48.738;9.306;2023-09-30T02:10:07;7.97;;;2.47;;
4652;SDS011;9900;48.738;9.306;2023-09-30T02:12:37;2.87;;;2.23;;
4652;SDS011;9900;48.738;9.306;2023-09-30T02:15:08;5.63;;;2.73;;
4652;SDS011;9900;48.738;9.306;2023-09-30T02:17:37;7.27;;;2.07;;
4652;SDS011;9900;48.738;9.306;2023-09-30T02:20:07;3.97;;;2.60;;
4652;SDS011;9900;48.738;9.306;2023-09-30T02:22:43;7.83;;;2.70;;
4652;SDS011;9900;48.738;9.306;2023-09-30T02:25:12;2.87;;;2.10;;
4652;SDS011;9900;48.738;9.306;2023-09-30T02:27:41;4.77;;;2.63;;
4652;SDS011;9900;48.738;9.306;2023-09-30T02:30:12;3.57;;;2.00;;
4652;SDS011;9900;48.738;9.306;2023-09-30T02:32:41;4.97;;;2.33;;
4652;SDS011;9900;48.738;9.306;2023-09-30T02:35:13;5.67;;;2.20;;
4652;SDS011;9900;48.738;9.306;2023-09-30T02:37:43;5.77;;;2.37;;
4652;SDS011;9900;48.738;9.306;2023-09-30T02:40:12;2.77;;;2.00;;
4652;SDS011;9900;48.738;9.306;2023-09-30T02:42:42;4.50;;;2.80;;
4652;SDS011;9900;48.738;9.306;2023-09-30T02:45:12;3.53;;;2.37;;
4652;SDS011;9900;48.738;9.306;2023-09-30T02:47:41;4.63;;;2.63;;
4652;SDS011;9900;48.738;9.306;2023-09-30T02:50:10;4.33;;;2.13;;
4652;SDS011;9900;48.738;9.306;2023-09-30T02:52:39;4.03;;;2.07;;
4652;SDS011;9900;48.738;9.306;2023-09-30T02:55:09;6.77;;;2.90;;
4652;SDS011;9900;48.738;9.306;2023-09-30T02:57:38;4.00;;;2.23;;
4652;SDS011;9900;48.738;9.306;2023-09-30T03:00:08;4.03;;;2.43;;
4652;SDS011;9900;48.738;9.306;2023-09-30T03:02:55;6.07;;;3.43;;
4652;SDS011;9900;48.738;9.306;2023-09-30T03:05:24;3.63;;;2.60;;
4652;SDS011;9900;48.738;9.306;2023-09-30T03:07:54;6.30;;;3.33;;
4652;SDS011;9900;48.738;9.306;2023-09-30T03:10:23;7.20;;;3.40;;
4652;SDS011;9900;48.738;9.306;2023-09-30T03:12:52;5.63;;;3.27;;
4652;SDS011;9900;48.738;9.306;2023-09-30T03:15:20;10.00;;;3.27;;
4652;SDS011;9900;48.738;9.306;2023-09-30T03:17:49;10.33;;;3.50;;
4652;SDS011;9900;48.738;9.306;2023-09-30T03:20:21;7.37;;;3.23;;
4652;SDS011;9900;48.738;9.306;2023-09-30T03:22:52;6.33;;;3.30;;
4652;SDS011;9900;48.738;9.306;2023-09-30T03:25:21;7.97;;;3.67;;
4652;SDS011;9900;48.738;9.306;2023-09-30T03:27:50;10.93;;;3.40;;
4652;SDS011;9900;48.738;9.306;2023-09-30T03:30:19;6.27;;;3.20;;
4652;SDS011;9900;48.738;9.306;2023-09-30T03:32:48;6.50;;;3.60;;
4652;SDS011;9900;48.738;9.306;2023-09-30T03:35:17;7.87;;;3.40;;
4652;SDS011;9900;48.738;9.306;2023-09-30T03:37:47;7.50;;;3.53;;
4652;SDS011;9900;48.738;9.306;2023-09-30T03:40:16;8.00;;;2.90;;
4652;SDS011;9900;48.738;9.306;2023-09-30T03:42:48;5.73;;;3.30;;
4652;SDS011;9900;48.738;9.306;2023-09-30T03:45:17;8.40;;;3.33;;
4652;SDS011;9900;48.738;9.306;2023-09-30T03:47:47;6.87;;;3.30;;
4652;SDS011;9900;48.738;9.306;2023-09-30T03:50:16;4.93;;;2.33;;
4652;SDS011;9900;48.738;9.306;2023-09-30T03:52:47;6.20;;;3.10;;
4652;SDS011;9900;48.738;9.306;2023-09-30T03:55:16;4.10;;;2.47;;
4652;SDS011;9900;48.738;9.306;2023-09-30T03:57:48;5.07;;;2.80;;
4652;SDS011;9900;48.738;9.306;2023-09-30T04:00:19;5.00;;;2.83;;
4652;SDS011;9900;48.738;9.306;2023-09-30T04:02:49;5.90;;;2.87;;
4652;SDS011;9900;48.738;9.306;2023-09-30T04:05:21;6.93;;;2.90;;
4652;SDS011;9900;48.738;9.306;2023-09-30T04:07:57;6.83;;;3.60;;
4652;SDS011;9900;48.738;9.306;2023-09-30T04:10:26;7.10;;;3.70;;
4652;SDS011;9900;48.738;9.306;2023-09-30T04:12:57;8.30;;;3.70;;
4652;SDS011;9900;48.738;9.306;2023-09-30T04:15:25;8.60;;;4.40;;
4652;SDS011;9900;48.738;9.306;2023-09-30T04:17:54;9.57;;;3.97;;
4652;SDS011;9900;48.738;9.306;2023-09-30T04:20:23;11.90;;;3.87;;
4652;SDS011;9900;48.738;9.306;2023-09-30T04:22:54;10.50;;;4.90;;
4652;SDS011;9900;48.738;9.306;2023-09-30T04:25:26;9.70;;;4.40;;
4652;SDS011;9900;48.738;9.306;2023-09-30T04:27:55;7.43;;;3.90;;
4652;SDS011;9900;48.738;9.306;2023-09-30T04:30:24;11.00;;;4.30;;
4652;SDS011;9900;48.738;9.306;2023-09-30T04:32:54;7.10;;;4.10;;
4652;SDS011;9900;48.738;9.306;2023-09-30T04:35:24;7.63;;;3.80;;
4652;SDS011;9900;48.738;9.306;2023-09-30T04:37:53;9.80;;;3.73;;
4652;SDS011;9900;48.738;9.306;2023-09-30T04:40:22;6.00;;;3.50;;
4652;SDS011;9900;48.738;9.306;2023-09-30T04:42:52;8.27;;;3.80;;
4652;SDS011;9900;48.738;9.306;2023-09-30T04:45:25;7.70;;;4.13;;
4652;SDS011;9900;48.738;9.306;2023-09-30T04:47:54;7.23;;;3.20;;
4652;SDS011;9900;48.738;9.306;2023-09-30T04:50:24;7.03;;;3.70;;
4652;SDS011;9900;48.738;9.306;2023-09-30T04:52:53;10.10;;;4.10;;
4652;SDS011;9900;48.738;9.306;2023-09-30T04:55:23;9.10;;;4.53;;
4652;SDS011;9900;48.738;9.306;2023-09-30T04:57:53;5.90;;;3.70;;
4652;SDS011;9900;48.738;9.306;2023-09-30T05:00:22;9.10;;;3.87;;
4652;SDS011;9900;48.738;9.306;2023-09-30T05:02:54;8.10;;;4.30;;
4652;SDS011;9900;48.738;9.306;2023-09-30T05:05:23;6.47;;;3.47;;
4652;SDS011;9900;48.738;9.306;2023-09-30T05:07:52;6.10;;;3.70;;
4652;SDS011;9900;48.738;9.306;2023-09-30T05:10:21;6.00;;;3.60;;
4652;SDS011;9900;48.738;9.306;2023-09-30T05:12:51;6.53;;;3.20;;
4652;SDS011;9900;48.738;9.306;2023-09-30T05:15:23;8.33;;;4.50;;
4652;SDS011;9900;48.738;9.306;2023-09-30T05:17:52;7.63;;;3.60;;
4652;SDS011;9900;48.738;9.306;2023-09-30T05:20:21;6.70;;;3.70;;
4652;SDS011;9900;48.738;9.306;2023-09-30T05:22:51;6.87;;;3.13;;
4652;SDS011;9900;48.738;9.306;2023-09-30T05:25:20;6.30;;;3.40;;
4652;SDS011;9900;48.738;9.306;2023-09-30T05:27:53;6.50;;;3.80;;
4652;SDS011;9900;48.738;9.306;2023-09-30T05:30:23;6.63;;;3.73;;
4652;SDS011;9900;48.738;9.306;2023-09-30T05:32:52;8.70;;;4.40;;
4652;SDS011;9900;48.738;9.306;2023-09-30T05:35:21;12.10;;;4.97;;
4652;SDS011;9900;48.738;9.306;2023-09-30T05:37:51;8.93;;;4.07;;
4652;SDS011;9900;48.738;9.306;2023-09-30T05:40:20;11.07;;;4.45;;
4652;SDS011;9900;48.738;9.306;2023-09-30T05:42:52;9.90;;;4.30;;
4652;SDS011;9900;48.738;9.306;2023-09-30T05:45:23;8.60;;;4.13;;
4652;SDS011;9900;48.738;9.306;2023-09-30T05:47:53;6.50;;;3.37;;
4652;SDS011;9900;48.738;9.306;2023-09-30T05:50:24;7.63;;;3.37;;
4652;SDS011;9900;48.738;9.306;2023-09-30T05:52:54;9.23;;;3.30;;
4652;SDS011;9900;48.738;9.306;2023-09-30T05:55:24;12.60;;;3.87;;
4652;SDS011;9900;48.738;9.306;2023-09-30T05:57:54;7.20;;;4.03;;
4652;SDS011;9900;48.738;9.306;2023-09-30T06:00:24;8.00;;;4.00;;
4652;SDS011;9900;48.738;9.306;2023-09-30T06:02:58;14.00;;;3.43;;
4652;SDS011;9900;48.738;9.306;2023-09-30T06:05:28;9.20;;;4.20;;
4652;SDS011;9900;48.738;9.306;2023-09-30T06:07:59;12.67;;;4.20;;
4652;SDS011;9900;48.738;9.306;2023-09-30T06:10:30;10.13;;;4.57;;
4652;SDS011;9900;48.738;9.306;2023-09-30T06:12:59;10.90;;;4.00;;
4652;SDS011;9900;48.738;9.306;2023-09-30T06:15:31;10.73;;;4.53;;
4652;SDS011;9900;48.738;9.306;2023-09-30T06:18:00;8.57;;;3.90;;
4652;SDS011;9900;48.738;9.306;2023-09-30T06:20:29;10.53;;;4.93;;
4652;SDS011;9900;48.738;9.306;2023-09-30T06:22:58;9.27;;;4.47;;
4652;SDS011;9900;48.738;9.306;2023-09-30T06:25:27;6.70;;;4.10;;
4652;SDS011;9900;48.738;9.306;2023-09-30T06:27:58;7.47;;;4.13;;
4652;SDS011;9900;48.738;9.306;2023-09-30T06:30:27;9.50;;;4.23;;
4652;SDS011;9900;48.738;9.306;2023-09-30T06:33:00;10.10;;;4.30;;
4652;SDS011;9900;48.738;9.306;2023-09-30T06:35:32;8.70;;;3.83;;
4652;SDS011;9900;48.738;9.306;2023-09-30T06:38:05;10.40;;;4.27;;
4652;SDS011;9900;48.738;9.306;2023-09-30T06:40:35;10.53;;;3.70;;
4652;SDS011;9900;48.738;9.306;2023-09-30T06:43:07;10.70;;;4.57;;
4652;SDS011;9900;48.738;9.306;2023-09-30T06:45:36;12.53;;;3.90;;
4652;SDS011;9900;48.738;9.306;2023-09-30T06:48:11;8.67;;;3.73;;
4652;SDS011;9900;48.738;9.306;2023-09-30T06:50:43;11.00;;;4.53;;
4652;SDS011;9900;48.738;9.306;2023-09-30T06:53:12;8.67;;;4.00;;
4652;SDS011;9900;48.738;9.306;2023-09-30T06:55:43;7.00;;;4.50;;
4652;SDS011;9900;48.738;9.306;2023-09-30T06:58:12;11.10;;;4.47;;
4652;SDS011;9900;48.738;9.306;2023-09-30T07:00:46;7.43;;;4.17;;
4652;SDS011;9900;48.738;9.306;2023-09-30T07:03:17;7.63;;;4.37;;
4652;SDS011;9900;48.738;9.306;2023-09-30T07:05:53;5.77;;;4.00;;
4652;SDS011;9900;48.738;9.306;2023-09-30T07:08:23;6.70;;;4.00;;
4652;SDS011;9900;48.738;9.306;2023-09-30T07:10:52;6.90;;;3.47;;
4652;SDS011;9900;48.738;9.306;2023-09-30T07:13:21;5.83;;;3.47;;
4652;SDS011;9900;48.738;9.306;2023-09-30T07:15:50;7.87;;;4.03;;
4652;SDS011;9900;48.738;9.306;2023-09-30T07:18:20;13.40;;;3.77;;
4652;SDS011;9900;48.738;9.306;2023-09-30T07:20:49;9.20;;;3.30;;
4652;SDS011;9900;48.738;9.306;2023-09-30T07:23:19;8.03;;;4.10;;
4652;SDS011;9900;48.738;9.306;2023-09-30T07:25:48;7.50;;;3.27;;
4652;SDS011;9900;48.738;9.306;2023-09-30T07:28:16;7.93;;;3.83;;
4652;SDS011;9900;48.738;9.306;2023-09-30T07:30:45;7.43;;;3.33;;
4652;SDS011;9900;48.738;9.306;2023-09-30T07:33:14;7.40;;;3.20;;
4652;SDS011;9900;48.738;9.306;2023-09-30T07:35:44;8.67;;;3.30;;
4652;SDS011;9900;48.738;9.306;2023-09-30T07:38:13;11.30;;;3.70;;
4652;SDS011;9900;48.738;9.306;2023-09-30T07:40:42;10.17;;;3.90;;
4652;SDS011;9900;48.738;9.306;2023-09-30T07:43:11;10.80;;;3.63;;
4652;SDS011;9900;48.738;9.306;2023-09-30T07:45:40;11.90;;;3.13;;
4652;SDS011;9900;48.738;9.306;2023-09-30T07:48:11;7.27;;;3.07;;
4652;SDS011;9900;48.738;9.306;2023-09-30T07:50:41;6.93;;;3.23;;
4652;SDS011;9900;48.738;9.306;2023-09-30T07:53:12;9.33;;;3.30;;
4652;SDS011;9900;48.738;9.306;2023-09-30T07:55:40;10.50;;;3.07;;
4652;SDS011;9900;48.738;9.306;2023-09-30T07:58:09;5.17;;;2.80;;
4652;SDS011;9900;48.738;9.306;2023-09-30T08:00:38;9.57;;;3.70;;
4652;SDS011;9900;48.738;9.306;2023-09-30T08:03:09;7.33;;;3.30;;
4652;SDS011;9900;48.738;9.306;2023-09-30T08:05:39;9.87;;;3.97;;
4652;SDS011;9900;48.738;9.306;2023-09-30T08:08:09;9.60;;;3.83;;
4652;SDS011;9900;48.738;9.306;2023-09-30T08:10:39;7.37;;;3.30;;
4652;SDS011;9900;48.738;9.306;2023-09-30T08:13:08;12.83;;;3.60;;
4652;SDS011;9900;48.738;9.306;2023-09-30T08:15:37;6.60;;;3.50;;
4652;SDS011;9900;48.738;9.306;2023-09-30T08:18:06;4.97;;;3.20;;
4652;SDS011;9900;48.738;9.306;2023-09-30T08:20:35;9.40;;;4.47;;
4652;SDS011;9900;48.738;9.306;2023-09-30T08:23:04;6.40;;;3.10;;
4652;SDS011;9900;48.738;9.306;2023-09-30T08:25:33;9.40;;;3.43;;
4652;SDS011;9900;48.738;9.306;2023-09-30T08:28:04;10.03;;;4.37;;
4652;SDS011;9900;48.738;9.306;2023-09-30T08:30:33;6.83;;;3.50;;
4652;SDS011;9900;48.738;9.306;2023-09-30T08:33:02;6.17;;;3.43;;
4652;SDS011;9900;48.738;9.306;2023-09-30T08:35:35;11.63;;;4.10;;
4652;SDS011;9900;48.738;9.306;2023-09-30T08:38:04;11.67;;;4.77;;
4652;SDS011;9900;48.738;9.306;2023-09-30T08:40:33;8.30;;;4.23;;
4652;SDS011;9900;48.738;9.306;2023-09-30T08:43:02;8.37;;;4.03;;
4652;SDS011;9900;48.738;9.306;2023-09-30T08:45:34;14.53;;;4.40;;
4652;SDS011;9900;48.738;9.306;2023-09-30T08:48:05;7.60;;;3.40;;
4652;SDS011;9900;48.738;9.306;2023-09-30T08:50:34;9.80;;;3.83;;
4652;SDS011;9900;48.738;9.306;2023-09-30T08:53:06;11.90;;;4.37;;
4652;SDS011;9900;48.738;9.306;2023-09-30T08:55:35;7.17;;;3.93;;
4652;SDS011;9900;48.738;9.306;2023-09-30T08:58:07;7.73;;;3.97;;
4652;SDS011;9900;48.738;9.306;2023-09-30T09:00:36;10.40;;;3.83;;
4652;SDS011;9900;48.738;9.306;2023-09-30T09:03:06;6.60;;;3.80;;
4652;SDS011;9900;48.738;9.306;2023-09-30T09:05:36;5.40;;;3.50;;
4652;SDS011;9900;48.738;9.306;2023-09-30T09:08:05;6.90;;;3.90;;
4652;SDS011;9900;48.738;9.306;2023-09-30T09:10:33;9.33;;;3.90;;
4652;SDS011;9900;48.738;9.306;2023-09-30T09:13:02;7.90;;;3.97;;
4652;SDS011;9900;48.738;9.306;2023-09-30T09:15:33;7.30;;;3.87;;
4652;SDS011;9900;48.738;9.306;2023-09-30T09:18:02;6.97;;;3.47;;
4652;SDS011;9900;48.738;9.306;2023-09-30T09:20:31;10.20;;;4.17;;
4652;SDS011;9900;48.738;9.306;2023-09-30T09:23:01;10.23;;;4.23;;
4652;SDS011;9900;48.738;9.306;2023-09-30T09:25:30;7.87;;;4.17;;
4652;SDS011;9900;48.738;9.306;2023-09-30T09:28:06;10.20;;;4.27;;
4652;SDS011;9900;48.738;9.306;2023-09-30T09:30:37;7.17;;;3.97;;
4652;SDS011;9900;48.738;9.306;2023-09-30T09:33:08;5.27;;;3.70;;
4652;SDS011;9900;48.738;9.306;2023-09-30T09:35:37;5.33;;;4.20;;
4652;SDS011;9900;48.738;9.306;2023-09-30T09:38:06;9.03;;;4.50;;
4652;SDS011;9900;48.738;9.306;2023-09-30T09:40:36;7.13;;;3.80;;
4652;SDS011;9900;48.738;9.306;2023-09-30T09:43:06;7.23;;;3.83;;
4652;SDS011;9900;48.738;9.306;2023-09-30T09:45:36;9.23;;;4.50;;
4652;SDS011;9900;48.738;9.306;2023-09-30T09:48:06;9.80;;;4.00;;
4652;SDS011;9900;48.738;9.306;2023-09-30T09:50:35;7.83;;;3.70;;
4652;SDS011;9900;48.738;9.306;2023-09-30T09:53:06;5.20;;;3.17;;
4652;SDS011;9900;48.738;9.306;2023-09-30T09:55:35;11.20;;;4.10;;
4652;SDS011;9900;48.738;9.306;2023-09-30T09:58:06;6.30;;;3.60;;
4652;SDS011;9900;48.738;9.306;2023-09-30T10:00:37;6.33;;;3.97;;
4652;SDS011;9900;48.738;9.306;2023-09-30T10:03:06;5.80;;;3.57;;
4652;SDS011;9900;48.738;9.306;2023-09-30T10:05:36;11.07;;;4.57;;
4652;SDS011;9900;48.738;9.306;2023-09-30T10:08:07;13.60;;;4.40;;
4652;SDS011;9900;48.738;9.306;2023-09-30T10:10:40;10.27;;;4.40;;
4652;SDS011;9900;48.738;9.306;2023-09-30T10:13:09;10.23;;;4.47;;
4652;SDS011;9900;48.738;9.306;2023-09-30T10:15:39;10.03;;;4.40;;
4652;SDS011;9900;48.738;9.306;2023-09-30T10:18:09;5.80;;;3.63;;
4652;SDS011;9900;48.738;9.306;2023-09-30T10:20:42;8.70;;;3.97;;
4652;SDS011;9900;48.738;9.306;2023-09-30T10:23:25;7.90;;;4.43;;
4652;SDS011;9900;48.738;9.306;2023-09-30T10:25:55;9.43;;;4.50;;
4652;SDS011;9900;48.738;9.306;2023-09-30T10:28:45;7.43;;;4.13;;
4652;SDS011;9900;48.738;9.306;2023-09-30T10:31:18;7.07;;;3.83;;
4652;SDS011;9900;48.738;9.306;2023-09-30T10:36:46;6.80;;;3.67;;
4652;SDS011;9900;48.738;9.306;2023-09-30T10:48:37;9.93;;;4.10;;
4652;SDS011;9900;48.738;9.306;2023-09-30T10:51:12;6.70;;;3.60;;
4652;SDS011;9900;48.738;9.306;2023-09-30T10:53:48;9.10;;;3.63;;
4652;SDS011;9900;48.738;9.306;2023-09-30T10:56:20;9.07;;;4.70;;
4652;SDS011;9900;48.738;9.306;2023-09-30T10:58:50;7.90;;;4.50;;
4652;SDS011;9900;48.738;9.306;2023-09-30T11:01:20;8.63;;;4.40;;
4652;SDS011;9900;48.738;9.306;2023-09-30T11:03:59;18.73;;;5.83;;
4652;SDS011;9900;48.738;9.306;2023-09-30T11:06:34;10.77;;;5.93;;
4652;SDS011;9900;48.738;9.306;2023-09-30T11:09:03;9.33;;;4.80;;
4652;SDS011;9900;48.738;9.306;2023-09-30T11:11:33;10.57;;;5.57;;
4652;SDS011;9900;48.738;9.306;2023-09-30T11:14:03;8.20;;;5.30;;
4652;SDS011;9900;48.738;9.306;2023-09-30T11:16:42;11.17;;;6.13;;
4652;SDS011;9900;48.738;9.306;2023-09-30T11:19:13;10.70;;;5.67;;
4652;SDS011;9900;48.738;9.306;2023-09-30T11:21:42;10.80;;;6.13;;
4652;SDS011;9900;48.738;9.306;2023-09-30T11:24:13;9.23;;;4.77;;
4652;SDS011;9900;48.738;9.306;2023-09-30T11:26:42;10.83;;;5.20;;
4652;SDS011;9900;48.738;9.306;2023-09-30T11:29:12;8.20;;;4.47;;
4652;SDS011;9900;48.738;9.306;2023-09-30T11:31:43;11.33;;;5.07;;
4652;SDS011;9900;48.738;9.306;2023-09-30T11:34:16;12.10;;;5.50;;
4652;SDS011;9900;48.738;9.306;2023-09-30T11:36:47;9.30;;;5.07;;
4652;SDS011;9900;48.738;9.306;2023-09-30T11:39:23;12.70;;;6.23;;
4652;SDS011;9900;48.738;9.306;2023-09-30T11:41:52;13.60;;;6.20;;
4652;SDS011;9900;48.738;9.306;2023-09-30T11:44:22;14.20;;;5.83;;
4652;SDS011;9900;48.738;9.306;2023-09-30T11:46:53;8.27;;;4.90;;
4652;SDS011;9900;48.738;9.306;2023-09-30T11:49:29;12.23;;;5.70;;
4652;SDS011;9900;48.738;9.306;2023-09-30T11:51:59;11.43;;;5.23;;
4652;SDS011;9900;48.738;9.306;2023-09-30T11:54:31;9.97;;;4.70;;
4652;SDS011;9900;48.738;9.306;2023-09-30T11:57:00;9.43;;;5.00;;
4652;SDS011;9900;48.738;9.306;2023-09-30T11:59:30;15.67;;;5.30;;
4652;SDS011;9900;48.738;9.306;2023-09-30T12:01:59;12.87;;;5.73;;
4652;SDS011;9900;48.738;9.306;2023-09-30T12:04:42;11.60;;;5.63;;
4652;SDS011;9900;48.738;9.306;2023-09-30T12:07:12;13.30;;;6.13;;
4652;SDS011;9900;48.738;9.306;2023-09-30T12:09:42;10.50;;;6.03;;
4652;SDS011;9900;48.738;9.306;2023-09-30T12:12:11;13.53;;;6.20;;
4652;SDS011;9900;48.738;9.306;2023-09-30T12:14:42;11.93;;;6.00;;
4652;SDS011;9900;48.738;9.306;2023-09-30T12:17:11;8.90;;;5.07;;
4652;SDS011;9900;48.738;9.306;2023-09-30T12:19:43;11.33;;;5.50;;
4652;SDS011;9900;48.738;9.306;2023-09-30T12:22:11;12.43;;;5.50;;
4652;SDS011;9900;48.738;9.306;2023-09-30T12:24:40;12.53;;;6.80;;
4652;SDS011;9900;48.738;9.306;2023-09-30T12:27:09;11.40;;;5.60;;
4652;SDS011;9900;48.738;9.306;2023-09-30T12:29:38;10.70;;;5.70;;
4652;SDS011;9900;48.738;9.306;2023-09-30T12:32:07;8.87;;;5.47;;
4652;SDS011;9900;48.738;9.306;2023-09-30T12:34:37;10.80;;;5.40;;
4652;SDS011;9900;48.738;9.306;2023-09-30T12:37:07;8.43;;;5.20;;
4652;SDS011;9900;48.738;9.306;2023-09-30T12:39:36;11.40;;;5.10;;
4652;SDS011;9900;48.738;9.306;2023-09-30T12:42:05;12.33;;;5.83;;
4652;SDS011;9900;48.738;9.306;2023-09-30T12:44:36;12.07;;;5.70;;
4652;SDS011;9900;48.738;9.306;2023-09-30T12:47:05;11.27;;;5.33;;
4652;SDS011;9900;48.738;9.306;2023-09-30T12:49:34;16.60;;;6.00;;
4652;SDS011;9900;48.738;9.306;2023-09-30T12:52:04;9.77;;;6.00;;
4652;SDS011;9900;48.738;9.306;2023-09-30T12:54:34;10.80;;;4.97;;
4652;SDS011;9900;48.738;9.306;2023-09-30T12:57:03;11.20;;;5.20;;
4652;SDS011;9900;48.738;9.306;2023-09-30T12:59:34;9.83;;;4.87;;
4652;SDS011;9900;48.738;9.306;2023-09-30T13:02:03;8.53;;;5.23;;
4652;SDS011;9900;48.738;9.306;2023-09-30T13:04:32;10.50;;;5.00;;
4652;SDS011;9900;48.738;9.306;2023-09-30T13:07:01;10.30;;;5.77;;
4652;SDS011;9900;48.738;9.306;2023-09-30T13:09:30;10.10;;;5.57;;
4652;SDS011;9900;48.738;9.306;2023-09-30T13:12:00;10.33;;;5.57;;
4652;SDS011;9900;48.738;9.306;2023-09-30T13:14:29;12.10;;;5.37;;
4652;SDS011;9900;48.738;9.306;2023-09-30T13:16:58;8.83;;;4.83;;
4652;SDS011;9900;48.738;9.306;2023-09-30T13:19:27;11.37;;;5.73;;
4652;SDS011;9900;48.738;9.306;2023-09-30T13:21:56;10.03;;;4.93;;
4652;SDS011;9900;48.738;9.306;2023-09-30T13:24:25;9.87;;;5.93;;
4652;SDS011;9900;48.738;9.306;2023-09-30T13:26:54;13.93;;;6.60;;
4652;SDS011;9900;48.738;9.306;2023-09-30T13:29:24;12.53;;;5.77;;
4652;SDS011;9900;48.738;9.306;2023-09-30T13:31:53;10.60;;;5.37;;
4652;SDS011;9900;48.738;9.306;2023-09-30T13:34:22;10.10;;;5.60;;
4652;SDS011;9900;48.738;9.306;2023-09-30T13:36:51;8.00;;;4.53;;
4652;SDS011;9900;48.738;9.306;2023-09-30T13:39:19;12.63;;;5.40;;
4652;SDS011;9900;48.738;9.306;2023-09-30T13:41:48;14.43;;;5.70;;
4652;SDS011;9900;48.738;9.306;2023-09-30T13:44:17;11.17;;;5.33;;
4652;SDS011;9900;48.738;9.306;2023-09-30T13:46:48;8.43;;;5.20;;
4652;SDS011;9900;48.738;9.306;2023-09-30T13:49:17;12.27;;;5.40;;
4652;SDS011;9900;48.738;9.306;2023-09-30T13:51:46;16.20;;;5.87;;
4652;SDS011;9900;48.738;9.306;2023-09-30T13:54:14;9.57;;;4.90;;
4652;SDS011;9900;48.738;9.306;2023-09-30T13:56:43;9.77;;;5.27;;
4652;SDS011;9900;48.738;9.306;2023-09-30T13:59:12;10.30;;;5.37;;
4652;SDS011;9900;48.738;9.306;2023-09-30T14:01:41;11.13;;;5.57;;
4652;SDS011;9900;48.738;9.306;2023-09-30T14:04:11;12.17;;;6.20;;
4652;SDS011;9900;48.738;9.306;2023-09-30T14:06:40;10.20;;;5.13;;
4652;SDS011;9900;48.738;9.306;2023-09-30T14:09:09;11.47;;;6.00;;
4652;SDS011;9900;48.738;9.306;2023-09-30T14:12:01;13.10;;;5.63;;
4652;SDS011;9900;48.738;9.306;2023-09-30T14:14:31;11.37;;;6.10;;
4652;SDS011;9900;48.738;9.306;2023-09-30T14:17:01;13.80;;;5.97;;
4652;SDS011;9900;48.738;9.306;2023-09-30T14:19:36;10.53;;;5.20;;
4652;SDS011;9900;48.738;9.306;2023-09-30T14:22:06;14.30;;;5.70;;
4652;SDS011;9900;48.738;9.306;2023-09-30T14:24:35;12.13;;;6.07;;
4652;SDS011;9900;48.738;9.306;2023-09-30T14:27:04;9.07;;;4.90;;
4652;SDS011;9900;48.738;9.306;2023-09-30T14:29:33;15.67;;;6.90;;
4652;SDS011;9900;48.738;9.306;2023-09-30T14:32:02;13.23;;;6.70;;
4652;SDS011;9900;48.738;9.306;2023-09-30T14:34:31;16.10;;;9.20;;
4652;SDS011;9900;48.738;9.306;2023-09-30T14:37:01;13.97;;;7.47;;
4652;SDS011;9900;48.738;9.306;2023-09-30T14:39:30;13.73;;;5.97;;
4652;SDS011;9900;48.738;9.306;2023-09-30T14:41:59;9.97;;;5.13;;
4652;SDS011;9900;48.738;9.306;2023-09-30T14:44:28;10.70;;;5.30;;
4652;SDS011;9900;48.738;9.306;2023-09-30T14:46:56;9.57;;;5.07;;
4652;SDS011;9900;48.738;9.306;2023-09-30T14:49:25;13.40;;;5.13;;
4652;SDS011;9900;48.738;9.306;2023-09-30T14:51:56;13.23;;;5.10;;
4652;SDS011;9900;48.738;9.306;2023-09-30T14:54:26;8.70;;;5.30;;
4652;SDS011;9900;48.738;9.306;2023-09-30T14:56:55;16.20;;;5.63;;
4652;SDS011;9900;48.738;9.306;2023-09-30T14:59:24;12.07;;;4.57;;
4652;SDS011;9900;48.738;9.306;2023-09-30T15:01:53;13.70;;;6.10;;
4652;SDS011;9900;48.738;9.306;2023-09-30T15:04:21;12.47;;;5.33;;
4652;SDS011;9900;48.738;9.306;2023-09-30T15:06:52;11.63;;;5.43;;
4652;SDS011;9900;48.738;9.306;2023-09-30T15:09:21;10.57;;;5.70;;
4652;SDS011;9900;48.738;9.306;2023-09-30T15:11:52;13.17;;;5.97;;
4652;SDS011;9900;48.738;9.306;2023-09-30T15:14:21;11.93;;;5.53;;
4652;SDS011;9900;48.738;9.306;2023-09-30T15:16:50;9.43;;;5.00;;
4652;SDS011;9900;48.738;9.306;2023-09-30T15:19:19;10.67;;;5.87;;
4652;SDS011;9900;48.738;9.306;2023-09-30T15:21:48;16.20;;;5.77;;
4652;SDS011;9900;48.738;9.306;2023-09-30T15:24:17;8.43;;;4.93;;
4652;SDS011;9900;48.738;9.306;2023-09-30T15:26:45;8.87;;;4.57;;
4652;SDS011;9900;48.738;9.306;2023-09-30T15:29:16;14.00;;;5.53;;
4652;SDS011;9900;48.738;9.306;2023-09-30T15:31:45;12.40;;;5.40;;
4652;SDS011;9900;48.738;9.306;2023-09-30T15:34:14;9.30;;;5.83;;
4652;SDS011;9900;48.738;9.306;2023-09-30T15:36:43;10.50;;;5.30;;
4652;SDS011;9900;48.738;9.306;2023-09-30T15:39:12;9.53;;;5.50;;